Time;durP1;ratioP1;P1;durP2;ratioP2;P2;SDS_P1;SDS_P2;PMS_P1;PMS_P2;Temp;Humidity;BMP_temperature;BMP_pressure;BME280_temperature;BME280_humidity;BME280_pressure;Samples;Min_cycle;Max_cycle;Signal;HPM_P1;HPM_P2
2022/12/24 00:01:06;;;;;;;8.40;4.38;;;;;;;-2.41;86.27;100674.41;5113603;28;20058;-71
2022/12/24 00:03:35;;;;;;;8.40;4.15;;;;;;;-2.41;86.33;100679.69;5102392;28;20100;-71
2022/12/24 00:06:16;;;;;;;7.45;4.35;;;;;;;-2.46;85.73;100681.81;5107333;28;20081;-71
2022/12/24 00:08:42;;;;;;;5.53;4.00;;;;;;;-2.45;86.02;100694.06;5113274;28;20042;-71
2022/12/24 00:11:07;;;;;;;12.10;4.65;;;;;;;-2.45;86.21;100693.19;5100186;28;20036;-71
2022/12/24 00:13:33;;;;;;;9.10;4.13;;;;;;;-2.49;85.68;100692.59;5111815;28;20149;-71
2022/12/24 00:15:59;;;;;;;6.43;3.80;;;;;;;-2.54;86.08;100692.13;5106063;28;20040;-73
2022/12/24 00:18:24;;;;;;;7.55;3.75;;;;;;;-2.53;85.56;100699.06;5086692;28;20046;-71
2022/12/24 00:20:50;;;;;;;6.53;3.83;;;;;;;-2.76;85.81;100660.47;5114365;28;20032;-71
2022/12/24 00:23:16;;;;;;;7.72;3.97;;;;;;;-2.56;85.94;100699.28;5100890;28;20054;-72
2022/12/24 00:25:42;;;;;;;8.52;4.20;;;;;;;-2.58;85.66;100701.22;5126932;27;20065;-71
2022/12/24 00:28:08;;;;;;;6.70;4.20;;;;;;;-2.57;86.02;100702.88;5108365;28;20444;-71
2022/12/24 00:30:36;;;;;;;7.60;4.70;;;;;;;-2.54;86.09;100701.81;5102009;28;20394;-72
2022/12/24 00:33:02;;;;;;;8.75;4.93;;;;;;;-2.49;85.94;100708.41;5113856;28;20050;-72
2022/12/24 00:35:28;;;;;;;9.60;4.80;;;;;;;-2.44;86.56;100714.16;5102431;28;20482;-71
2022/12/24 00:37:53;;;;;;;7.13;4.55;;;;;;;-2.50;86.24;100692.72;5107558;28;20039;-71
2022/12/24 00:40:19;;;;;;;7.50;5.03;;;;;;;-2.32;85.90;100725.53;5109483;28;20036;-71
2022/12/24 00:42:44;;;;;;;7.70;4.60;;;;;;;-2.30;85.90;100720.19;5083670;28;20061;-71
2022/12/24 00:45:11;;;;;;;8.00;4.55;;;;;;;-2.53;86.24;100701.69;5095374;28;20114;-72
2022/12/24 00:47:37;;;;;;;7.75;4.13;;;;;;;-2.41;86.12;100719.22;5102783;28;20019;-72
2022/12/24 00:50:03;;;;;;;7.32;4.82;;;;;;;-2.47;86.15;100716.19;5107315;28;20126;-72
2022/12/24 00:52:29;;;;;;;8.00;4.70;;;;;;;-2.53;86.10;100730.66;5109646;28;20028;-71
2022/12/24 00:54:54;;;;;;;10.95;4.78;;;;;;;-2.56;86.28;100727.44;5099788;28;20032;-71
2022/12/24 00:57:20;;;;;;;7.82;4.65;;;;;;;-2.58;86.26;100727.56;5113226;28;20051;-71
2022/12/24 00:59:45;;;;;;;7.60;4.80;;;;;;;-2.54;86.12;100733.44;5104155;28;20039;-72
2022/12/24 01:02:10;;;;;;;6.05;4.00;;;;;;;-2.78;86.21;100688.69;5104971;28;20036;-72
2022/12/24 01:07:20;;;;;;;6.97;3.97;;;;;;;-2.66;86.06;100691.25;5084566;28;20034;-72
2022/12/24 01:09:45;;;;;;;7.13;4.07;;;;;;;-2.57;85.95;100696.78;5109726;28;20449;-71
2022/12/24 01:12:11;;;;;;;6.88;4.13;;;;;;;-2.53;85.63;100717.50;5089935;28;20056;-71
2022/12/24 01:14:37;;;;;;;8.40;4.18;;;;;;;-2.59;85.91;100710.06;5084351;28;20090;-72
2022/12/24 01:17:03;;;;;;;5.68;4.13;;;;;;;-2.67;85.90;100707.19;5113844;28;20035;-71
2022/12/24 01:19:29;;;;;;;9.32;5.07;;;;;;;-2.72;86.89;100711.94;5096905;28;20027;-71
2022/12/24 01:21:55;;;;;;;6.75;4.50;;;;;;;-2.72;86.76;100709.31;5104001;28;20066;-71
2022/12/24 01:24:20;;;;;;;7.00;4.63;;;;;;;-2.66;86.92;100716.75;5103584;28;20486;-71
2022/12/24 01:26:45;;;;;;;8.88;4.47;;;;;;;-2.58;86.93;100709.13;5094256;28;20038;-72
2022/12/24 01:29:11;;;;;;;8.20;4.22;;;;;;;-2.56;86.23;100709.81;5099849;28;20024;-71
2022/12/24 01:31:36;;;;;;;6.88;4.38;;;;;;;-2.69;86.59;100690.66;5110800;28;20040;-72
2022/12/24 01:34:02;;;;;;;7.07;4.18;;;;;;;-2.55;86.43;100714.16;5088291;28;20097;-71
2022/12/24 01:36:27;;;;;;;6.40;4.07;;;;;;;-2.54;86.17;100712.34;5102181;28;20043;-72
2022/12/24 01:38:52;;;;;;;8.85;3.97;;;;;;;-2.64;85.97;100702.53;5111824;28;20567;-71
2022/12/24 01:44:25;;;;;;;6.28;3.72;;;;;;;-2.63;86.38;100727.06;5105885;28;20532;-71
2022/12/24 01:46:54;;;;;;;11.02;3.60;;;;;;;-2.63;85.96;100727.06;5111306;28;20076;-71
2022/12/24 01:49:19;;;;;;;6.07;3.17;;;;;;;-2.63;86.25;100719.16;5083730;28;20012;-72
2022/12/24 01:52:12;;;;;;;5.13;3.63;;;;;;;-2.87;86.19;100696.34;5107729;28;20039;-72
2022/12/24 01:54:52;;;;;;;6.20;3.45;;;;;;;-2.69;85.78;100711.72;5122368;28;20046;-72
2022/12/24 01:57:30;;;;;;;5.40;3.33;;;;;;;-2.81;86.43;100689.78;5100010;28;20032;-72
2022/12/24 01:59:59;;;;;;;7.30;3.40;;;;;;;-2.53;86.19;100727.19;5105919;28;20095;-72
2022/12/24 02:02:27;;;;;;;6.28;3.60;;;;;;;-2.53;86.41;100716.66;5113313;28;20031;-72
2022/12/24 02:05:02;;;;;;;5.88;3.65;;;;;;;-2.44;86.63;100719.44;5103721;28;20104;-72
2022/12/24 02:07:28;;;;;;;5.22;3.50;;;;;;;-2.59;86.73;100694.25;5089363;28;20027;-72
2022/12/24 02:09:57;;;;;;;4.55;3.40;;;;;;;-2.44;86.60;100724.72;5093987;28;20390;-72
2022/12/24 02:12:23;;;;;;;4.97;3.10;;;;;;;-2.57;86.95;100707.31;5112781;28;20058;-72
2022/12/24 02:14:49;;;;;;;4.40;3.35;;;;;;;-2.51;86.47;100733.19;5102709;28;20050;-72
2022/12/24 02:17:24;;;;;;;4.25;3.47;;;;;;;-2.49;87.12;100726.84;5116198;28;20502;-72
2022/12/24 02:20:26;;;;;;;4.50;3.30;;;;;;;-2.55;87.16;100732.59;5106464;28;20394;-72
2022/12/24 02:23:29;;;;;;;5.35;3.40;;;;;;;-2.51;86.50;100741.94;5100518;28;20056;-72
2022/12/24 02:26:13;;;;;;;5.55;3.05;;;;;;;-2.56;86.64;100745.88;5096323;28;20398;-72
2022/12/24 02:29:10;;;;;;;5.53;3.20;;;;;;;-2.54;86.64;100747.44;5103992;28;20039;-72
2022/12/24 02:31:49;;;;;;;5.75;2.78;;;;;;;-2.50;86.80;100766.50;5081610;28;20063;-72
2022/12/24 02:34:33;;;;;;;3.92;2.85;;;;;;;-2.52;87.11;100765.75;5107170;28;20478;-72
2022/12/24 02:37:05;;;;;;;5.30;2.88;;;;;;;-2.53;86.92;100766.72;5116171;28;20055;-72
2022/12/24 02:39:46;;;;;;;3.47;2.65;;;;;;;-2.52;86.67;100761.31;5103039;28;20077;-72
2022/12/24 02:42:25;;;;;;;5.10;2.78;;;;;;;-2.53;86.50;100761.44;5109035;27;20099;-72
2022/12/24 02:45:13;;;;;;;6.65;2.88;;;;;;;-2.52;87.01;100758.69;5115706;28;20054;-72
2022/12/24 02:47:42;;;;;;;4.85;2.72;;;;;;;-2.49;86.94;100763.72;5119899;28;20035;-72
2022/12/24 02:50:11;;;;;;;5.03;3.00;;;;;;;-2.49;86.61;100771.63;5107859;28;20137;-72
2022/12/24 02:52:40;;;;;;;4.22;2.75;;;;;;;-2.65;87.08;100753.53;5113743;28;20100;-71
2022/12/24 02:55:18;;;;;;;3.92;2.78;;;;;;;-2.49;86.24;100781.34;5102734;28;20051;-72
2022/12/24 02:57:43;;;;;;;3.85;2.60;;;;;;;-2.58;86.59;100780.25;5112647;28;20028;-72
2022/12/24 03:00:16;;;;;;;4.95;2.55;;;;;;;-2.92;86.61;100734.50;5109549;28;20394;-72
2022/12/24 03:03:01;;;;;;;4.72;2.92;;;;;;;-2.76;86.48;100777.19;5103854;28;20032;-72
2022/12/24 03:05:34;;;;;;;4.50;2.80;;;;;;;-2.77;86.56;100774.66;5086812;28;20423;-72
2022/12/24 03:08:08;;;;;;;4.90;3.38;;;;;;;-2.99;86.43;100778.88;5120061;28;20031;-71
2022/12/24 03:11:09;;;;;;;5.97;3.53;;;;;;;-3.32;86.31;100783.00;5104366;28;20448;-71
2022/12/24 03:13:35;;;;;;;4.28;3.03;;;;;;;-3.33;86.16;100783.97;5088494;28;20112;-72
2022/12/24 03:16:09;;;;;;;5.95;3.35;;;;;;;-3.75;86.45;100772.06;5111282;28;20111;-72
2022/12/24 03:18:38;;;;;;;5.28;3.08;;;;;;;-3.91;86.26;100748.63;5113637;28;20032;-71
2022/12/24 03:21:07;;;;;;;4.80;3.17;;;;;;;-3.54;86.24;100796.03;5101288;28;20167;-71
2022/12/24 03:23:33;;;;;;;4.50;2.90;;;;;;;-3.52;85.79;100794.09;5112798;28;20028;-71
2022/12/24 03:26:03;;;;;;;3.67;2.58;;;;;;;-3.66;85.55;100760.91;5106588;28;20435;-71
2022/12/24 03:28:29;;;;;;;6.30;2.75;;;;;;;-3.57;85.83;100759.41;5105638;27;20024;-71
2022/12/24 03:30:59;;;;;;;5.63;3.38;;;;;;;-3.31;86.01;100792.59;5113995;28;20086;-72
2022/12/24 03:33:24;;;;;;;5.18;3.30;;;;;;;-3.24;85.54;100797.41;5086288;28;20452;-73
2022/12/24 03:35:50;;;;;;;4.13;2.60;;;;;;;-3.24;85.52;100805.31;5109833;28;20060;-70
2022/12/24 03:38:15;;;;;;;3.70;2.60;;;;;;;-3.53;85.37;100749.53;5108514;28;20032;-72
2022/12/24 03:40:41;;;;;;;4.82;3.05;;;;;;;-3.25;85.36;100812.34;5085544;28;20478;-72
2022/12/24 03:43:06;;;;;;;4.50;2.95;;;;;;;-3.31;85.32;100818.91;5115021;28;20045;-71
2022/12/24 03:45:31;;;;;;;7.03;2.70;;;;;;;-3.28;85.43;100815.19;5103322;28;20024;-71
2022/12/24 03:47:57;;;;;;;4.60;2.58;;;;;;;-3.27;85.75;100818.69;5091446;28;20114;-71
2022/12/24 03:50:22;;;;;;;5.55;2.70;;;;;;;-3.32;85.36;100809.31;5110391;28;20037;-71
2022/12/24 03:52:48;;;;;;;4.95;2.72;;;;;;;-3.50;85.22;100786.97;5101046;28;20451;-71
2022/12/24 03:55:13;;;;;;;5.63;2.67;;;;;;;-3.38;85.46;100816.78;5096293;28;20045;-70
2022/12/24 03:57:38;;;;;;;4.40;2.58;;;;;;;-3.37;85.54;100814.06;5103833;28;20035;-71
2022/12/24 04:00:05;;;;;;;4.63;2.92;;;;;;;-3.31;85.61;100818.91;5107320;28;20105;-70
2022/12/24 04:02:31;;;;;;;5.50;2.67;;;;;;;-3.26;85.86;100815.09;5110082;28;20040;-70
2022/12/24 04:04:56;;;;;;;5.10;3.08;;;;;;;-3.53;85.73;100771.41;5101415;28;20032;-70
2022/12/24 04:07:22;;;;;;;5.22;2.83;;;;;;;-3.23;85.92;100820.97;5096619;28;20032;-70
2022/12/24 04:09:47;;;;;;;5.20;3.08;;;;;;;-3.22;85.90;100817.38;5104924;28;20032;-70
2022/12/24 04:12:12;;;;;;;3.88;2.60;;;;;;;-3.22;85.61;100827.06;5106323;28;20176;-70
2022/12/24 04:14:38;;;;;;;5.05;2.50;;;;;;;-3.44;85.72;100778.63;5110632;28;20050;-71
2022/12/24 04:17:03;;;;;;;4.60;2.78;;;;;;;-3.26;85.59;100810.66;5082516;28;20036;-70
2022/12/24 04:19:29;;;;;;;3.30;2.38;;;;;;;-3.25;85.44;100814.13;5113271;28;20101;-70
2022/12/24 04:21:54;;;;;;;4.38;3.10;;;;;;;-3.29;85.67;100825.84;5103246;28;20084;-70
2022/12/24 04:24:19;;;;;;;7.07;3.22;;;;;;;-3.48;85.66;100787.66;5118201;28;20032;-71
2022/12/24 04:26:45;;;;;;;3.90;2.58;;;;;;;-3.26;85.62;100825.63;5083016;28;20047;-70
2022/12/24 04:29:10;;;;;;;3.92;2.70;;;;;;;-3.27;85.73;100830.06;5112077;28;20111;-70
2022/12/24 04:31:36;;;;;;;4.18;2.70;;;;;;;-3.42;85.62;100810.09;5102592;28;20100;-70
2022/12/24 04:34:01;;;;;;;3.90;2.78;;;;;;;-3.38;85.81;100832.59;5108164;28;20032;-70
2022/12/24 04:36:27;;;;;;;3.67;2.58;;;;;;;-3.36;85.76;100828.06;5108056;28;20035;-70
2022/12/24 04:38:52;;;;;;;3.70;2.60;;;;;;;-3.37;85.40;100819.34;5100959;28;20499;-70
2022/12/24 04:41:20;;;;;;;3.35;2.15;;;;;;;-3.38;85.42;100828.19;5112422;28;20114;-70
2022/12/24 04:43:46;;;;;;;4.82;2.58;;;;;;;-3.43;85.37;100803.97;5101674;28;20027;-70
2022/12/24 04:46:16;;;;;;;4.63;2.70;;;;;;;-3.29;85.70;100823.22;5106581;28;20051;-72
2022/12/24 04:48:43;;;;;;;5.10;2.45;;;;;;;-3.27;85.59;100823.94;5111513;28;20030;-70
2022/12/24 04:51:12;;;;;;;3.45;2.42;;;;;;;-3.33;85.28;100823.41;5100222;28;20089;-70
2022/12/24 04:53:38;;;;;;;4.03;2.60;;;;;;;-3.28;85.55;100825.72;5111801;28;20035;-70
2022/12/24 04:56:08;;;;;;;5.30;2.50;;;;;;;-3.27;85.42;100829.22;5105226;28;20024;-70
2022/12/24 04:58:33;;;;;;;6.05;2.50;;;;;;;-3.42;85.33;100813.53;5102641;28;20040;-70
2022/12/24 05:01:07;;;;;;;4.20;2.13;;;;;;;-3.37;85.58;100821.97;5112031;28;20138;-70
2022/12/24 05:03:33;;;;;;;5.47;2.43;;;;;;;-3.38;85.22;100822.06;5099500;28;20027;-70
2022/12/24 05:06:07;;;;;;;3.03;2.10;;;;;;;-3.37;85.72;100829.84;5106820;28;20091;-70
2022/12/24 05:08:33;;;;;;;3.97;2.33;;;;;;;-3.36;85.61;100828.91;5108993;28;20065;-70
2022/12/24 05:11:00;;;;;;;4.13;2.00;;;;;;;-3.57;85.28;100804.13;5099344;28;20039;-71
2022/12/24 05:13:26;;;;;;;5.50;2.53;;;;;;;-3.37;85.71;100827.22;5112017;28;20478;-70
2022/12/24 05:15:58;;;;;;;4.65;2.13;;;;;;;-3.39;85.70;100834.38;5102923;28;20070;-70
2022/12/24 05:18:24;;;;;;;4.38;2.50;;;;;;;-3.57;85.07;100798.88;5115548;28;20027;-70
2022/12/24 05:20:50;;;;;;;3.33;2.25;;;;;;;-3.40;85.25;100839.75;5101426;28;20024;-70
2022/12/24 05:26:21;;;;;;;3.25;2.17;;;;;;;-3.42;85.50;100823.22;5104010;28;20385;-72
2022/12/24 05:28:52;;;;;;;4.68;2.40;;;;;;;-3.42;85.28;100839.00;5101592;28;20279;-72
2022/12/24 05:31:18;;;;;;;3.13;1.92;;;;;;;-3.43;85.21;100835.56;5111995;28;20476;-71
2022/12/24 05:33:44;;;;;;;4.22;2.58;;;;;;;-3.42;85.60;100841.66;5102244;28;20039;-70
2022/12/24 05:36:09;;;;;;;2.72;1.85;;;;;;;-3.39;85.78;100837.00;5106576;28;20032;-70
2022/12/24 05:38:35;;;;;;;2.88;2.00;;;;;;;-3.34;85.47;100840.16;5109730;28;20092;-71
2022/12/24 05:41:00;;;;;;;3.42;2.38;;;;;;;-3.29;85.56;100839.00;5098831;28;20070;-70
2022/12/24 05:43:27;;;;;;;3.67;2.60;;;;;;;-3.28;85.88;100843.28;5112828;28;20058;-70
2022/12/24 05:46:00;;;;;;;3.15;2.20;;;;;;;-3.26;85.74;100846.66;5085836;28;20039;-70
2022/12/24 05:48:27;;;;;;;3.78;2.10;;;;;;;-3.29;85.72;100846.88;5104372;28;20027;-71
2022/12/24 05:50:52;;;;;;;4.28;2.58;;;;;;;-3.33;85.68;100851.53;5110824;28;20390;-70
2022/12/24 05:53:18;;;;;;;4.55;3.45;;;;;;;-3.33;85.35;100856.78;5080413;28;20036;-70
2022/12/24 05:55:43;;;;;;;4.55;2.97;;;;;;;-3.34;85.33;100857.75;5110100;28;20491;-70
2022/12/24 05:58:09;;;;;;;3.63;2.70;;;;;;;-3.57;85.22;100831.25;5087516;28;20091;-70
2022/12/24 06:00:34;;;;;;;4.70;3.10;;;;;;;-3.42;85.23;100865.31;5084391;28;20028;-70
2022/12/24 06:03:00;;;;;;;4.78;2.95;;;;;;;-3.49;85.42;100862.28;5111609;28;20039;-70
2022/12/24 06:05:25;;;;;;;3.92;2.63;;;;;;;-3.49;85.49;100864.91;5099850;28;20027;-70
2022/12/24 06:07:51;;;;;;;4.20;2.88;;;;;;;-3.52;85.36;100862.50;5108108;28;20106;-70
2022/12/24 06:10:16;;;;;;;3.83;3.00;;;;;;;-3.55;84.83;100862.69;5105839;28;20083;-70
2022/12/24 06:12:42;;;;;;;5.13;3.03;;;;;;;-3.54;85.39;100869.66;5066707;28;20506;-70
2022/12/24 06:15:08;;;;;;;5.50;3.53;;;;;;;-3.52;85.20;100866.91;5112051;28;20051;-71
2022/12/24 06:17:33;;;;;;;5.57;3.50;;;;;;;-3.54;85.51;100867.03;5100305;28;20024;-70
2022/12/24 06:19:58;;;;;;;6.90;3.28;;;;;;;-3.71;85.38;100841.03;5106244;28;20372;-70
2022/12/24 06:22:24;;;;;;;3.30;2.88;;;;;;;-3.58;85.07;100873.44;5108043;28;20031;-71
2022/12/24 06:24:49;;;;;;;3.70;2.78;;;;;;;-3.59;85.52;100869.97;5099239;28;20032;-71
2022/12/24 06:27:14;;;;;;;2.85;2.20;;;;;;;-3.61;85.19;100869.25;5112017;28;20498;-71
2022/12/24 06:29:40;;;;;;;4.80;2.55;;;;;;;-3.58;85.22;100870.81;5100416;28;20050;-70
2022/12/24 06:32:05;;;;;;;4.38;2.25;;;;;;;-3.64;85.00;100869.47;5106051;28;20024;-71
2022/12/24 06:34:31;;;;;;;3.38;2.22;;;;;;;-3.67;85.31;100874.94;5107497;28;20036;-71
2022/12/24 06:36:56;;;;;;;5.28;2.85;;;;;;;-3.66;85.20;100888.91;5099810;28;20036;-70
2022/12/24 06:39:21;;;;;;;4.57;2.33;;;;;;;-3.93;85.18;100857.47;5111109;28;20028;-71
2022/12/24 06:41:47;;;;;;;4.68;2.80;;;;;;;-3.95;85.02;100849.69;5084600;28;20065;-71
2022/12/24 06:44:12;;;;;;;4.43;3.17;;;;;;;-3.68;84.96;100888.16;5105906;28;20028;-71
2022/12/24 06:46:38;;;;;;;4.90;3.17;;;;;;;-3.61;85.33;100895.56;5111890;28;20077;-70
2022/12/24 06:49:03;;;;;;;4.78;3.70;;;;;;;-3.58;85.01;100897.09;5102880;28;20032;-70
2022/12/24 06:51:28;;;;;;;6.10;4.00;;;;;;;-3.59;85.32;100904.16;5115284;28;20035;-70
2022/12/24 06:53:54;;;;;;;9.32;5.57;;;;;;;-3.51;85.54;100914.16;5106728;28;20055;-71
2022/12/24 06:56:20;;;;;;;9.93;5.47;;;;;;;-3.43;85.47;100908.38;5090236;28;20028;-71
2022/12/24 06:58:46;;;;;;;5.80;3.75;;;;;;;-3.32;85.42;100909.28;5112444;28;20448;-71
2022/12/24 07:01:14;;;;;;;4.85;2.75;;;;;;;-3.25;85.45;100908.88;5101468;28;20032;-70
2022/12/24 07:03:39;;;;;;;4.30;2.95;;;;;;;-3.40;85.61;100882.69;5114351;28;20096;-71
2022/12/24 07:06:05;;;;;;;5.97;4.05;;;;;;;-3.19;85.31;100916.34;5107124;28;20549;-71
2022/12/24 07:08:35;;;;;;;8.15;5.35;;;;;;;-3.14;85.93;100912.44;5106391;28;20036;-71
2022/12/24 07:11:01;;;;;;;11.45;5.65;;;;;;;-3.11;86.03;100909.59;5113247;28;20394;-71
2022/12/24 07:13:28;;;;;;;5.68;3.42;;;;;;;-3.16;85.59;100900.34;5085425;28;20054;-70
2022/12/24 07:15:57;;;;;;;3.58;2.70;;;;;;;-3.11;85.95;100912.22;5111308;28;20024;-70
2022/12/24 07:18:23;;;;;;;3.88;2.60;;;;;;;-3.14;85.73;100922.97;5109027;28;20032;-71
2022/12/24 07:20:48;;;;;;;3.95;2.75;;;;;;;-3.18;85.76;100926.78;5101099;28;20506;-71
2022/12/24 07:23:13;;;;;;;5.60;3.10;;;;;;;-3.18;86.05;100928.53;5113872;28;20050;-71
2022/12/24 07:25:41;;;;;;;6.78;2.70;;;;;;;-3.26;85.90;100920.34;5102620;28;20050;-71
2022/12/24 07:28:07;;;;;;;6.13;3.30;;;;;;;-3.22;85.92;100932.34;5108049;28;20039;-71
2022/12/24 07:30:32;;;;;;;7.07;3.22;;;;;;;-3.27;85.74;100935.31;5109795;28;20055;-71
2022/12/24 07:32:57;;;;;;;5.22;3.40;;;;;;;-3.28;86.29;100943.28;5102244;28;20039;-70
2022/12/24 07:35:23;;;;;;;7.53;3.85;;;;;;;-3.37;86.15;100944.78;5115159;28;20032;-71
2022/12/24 07:37:48;;;;;;;9.93;4.63;;;;;;;-3.73;85.57;100940.25;5104334;28;20031;-71
2022/12/24 07:40:14;;;;;;;8.20;5.05;;;;;;;-3.71;86.24;100941.81;5106955;28;20070;-71
2022/12/24 07:42:39;;;;;;;7.72;4.50;;;;;;;-3.68;85.82;100951.28;5110494;28;20059;-71
2022/12/24 07:45:05;;;;;;;6.40;4.28;;;;;;;-3.68;85.63;100949.50;5100083;28;20040;-71
2022/12/24 07:47:32;;;;;;;6.13;3.78;;;;;;;-3.68;85.48;100940.75;5096075;28;20441;-71
2022/12/24 07:49:57;;;;;;;7.40;4.32;;;;;;;-3.66;85.85;100944.13;5104897;28;20066;-70
2022/12/24 07:52:23;;;;;;;8.27;5.75;;;;;;;-3.54;85.91;100948.56;5106021;28;20024;-71
2022/12/24 07:54:48;;;;;;;7.30;4.80;;;;;;;-3.49;85.55;100948.25;5111433;28;20035;-71
2022/12/24 07:57:14;;;;;;;8.25;5.22;;;;;;;-3.47;85.58;100955.09;5100665;28;20044;-71
2022/12/24 07:59:40;;;;;;;9.52;6.13;;;;;;;-3.65;85.78;100915.09;5111091;28;20051;-71
2022/12/24 08:02:05;;;;;;;9.90;5.25;;;;;;;-3.43;85.76;100953.94;5105013;28;20032;-71
2022/12/24 08:04:35;;;;;;;8.43;6.18;;;;;;;-3.49;85.52;100940.34;5104205;28;20039;-71
2022/12/24 08:07:01;;;;;;;11.05;5.80;;;;;;;-3.31;85.85;100966.25;5112760;28;20482;-70
2022/12/24 08:09:26;;;;;;;8.98;6.13;;;;;;;-3.20;85.97;100980.44;5101133;27;20161;-71
2022/12/24 08:11:51;;;;;;;10.20;6.45;;;;;;;-3.17;85.93;100967.09;5109504;28;20092;-71
2022/12/24 08:14:17;;;;;;;7.57;5.18;;;;;;;-3.18;85.82;100960.13;5089550;28;20382;-72
2022/12/24 08:16:42;;;;;;;7.65;5.18;;;;;;;-3.01;86.06;100978.22;5103407;28;20077;-70
2022/12/24 08:19:08;;;;;;;8.73;6.30;;;;;;;-2.99;85.73;100963.16;5114114;28;20031;-71
2022/12/24 08:21:33;;;;;;;6.72;4.78;;;;;;;-2.92;85.64;100976.72;5101714;28;20028;-70
2022/12/24 08:23:58;;;;;;;6.05;4.43;;;;;;;-2.88;85.74;100973.78;5109759;28;20523;-70
2022/12/24 08:26:24;;;;;;;10.52;5.20;;;;;;;-2.84;86.05;100985.78;5107472;28;20043;-70
2022/12/24 08:28:52;;;;;;;7.38;4.45;;;;;;;-2.79;85.79;100988.06;5101336;28;20036;-70
2022/12/24 08:31:17;;;;;;;6.28;4.40;;;;;;;-2.84;85.64;100985.78;5113573;28;20024;-70
2022/12/24 08:33:43;;;;;;;7.55;4.72;;;;;;;-2.76;85.98;100990.50;5084216;28;20036;-73
2022/12/24 08:36:08;;;;;;;15.77;7.90;;;;;;;-2.80;85.59;100982.94;5107915;28;20024;-73
2022/12/24 08:38:34;;;;;;;10.48;6.38;;;;;;;-2.89;85.70;100956.28;5108312;28;20039;-72
2022/12/24 08:40:59;;;;;;;11.13;6.40;;;;;;;-2.66;85.53;101001.22;5082494;28;20523;-70
2022/12/24 08:43:25;;;;;;;8.07;5.50;;;;;;;-2.66;85.57;100999.41;5113981;28;20028;-71
2022/12/24 08:45:51;;;;;;;9.23;5.18;;;;;;;-2.64;85.50;101008.06;5103791;28;20051;-72
2022/12/24 08:48:17;;;;;;;9.23;6.43;;;;;;;-2.66;85.62;101001.22;5105585;28;20032;-68
2022/12/24 08:50:43;;;;;;;11.95;7.40;;;;;;;-2.68;85.84;100995.19;5126242;27;20030;-67
2022/12/24 08:53:09;;;;;;;11.25;6.05;;;;;;;-2.58;85.70;101006.81;5099981;28;20093;-68
2022/12/24 08:55:35;;;;;;;10.38;5.88;;;;;;;-2.53;85.73;101014.38;5112709;28;20213;-67
2022/12/24 08:58:01;;;;;;;10.45;6.25;;;;;;;-2.58;85.76;101006.81;5104267;28;20023;-67
2022/12/24 09:00:26;;;;;;;11.00;6.40;;;;;;;-2.45;86.04;101017.28;5103637;28;20039;-67
2022/12/24 09:02:52;;;;;;;12.32;6.28;;;;;;;-2.42;85.91;101030.22;5111078;28;20054;-70
2022/12/24 09:05:17;;;;;;;11.73;6.18;;;;;;;-2.36;85.70;101030.63;5098126;28;20108;-69
2022/12/24 09:07:43;;;;;;;12.25;6.32;;;;;;;-2.33;85.50;101026.09;5111033;28;20111;-69
2022/12/24 09:10:09;;;;;;;13.45;7.32;;;;;;;-2.29;85.57;101025.75;5105450;28;20043;-69
2022/12/24 09:12:35;;;;;;;9.30;5.63;;;;;;;-2.26;85.88;101029.97;5103326;28;20119;-69
2022/12/24 09:15:03;;;;;;;7.13;5.05;;;;;;;-2.25;85.81;101029.88;5112808;28;20075;-70
2022/12/24 09:17:30;;;;;;;8.93;6.13;;;;;;;-2.10;85.54;101037.63;5100490;28;20030;-73
2022/12/24 09:19:55;;;;;;;16.27;10.80;;;;;;;-2.13;85.15;101041.31;5105877;28;20040;-68
2022/12/24 09:22:21;;;;;;;12.93;8.68;;;;;;;-2.17;85.18;101038.06;5087421;28;20059;-68
2022/12/24 09:24:46;;;;;;;8.23;6.35;;;;;;;-2.19;85.53;101045.22;5102957;28;20060;-70
2022/12/24 09:27:11;;;;;;;9.07;6.18;;;;;;;-2.15;86.06;101051.16;5111520;28;20085;-71
2022/12/24 09:29:39;;;;;;;13.88;9.13;;;;;;;-2.14;85.71;101052.81;5099445;28;20038;-69
2022/12/24 09:32:05;;;;;;;12.18;7.30;;;;;;;-2.08;86.17;101057.66;5107149;28;20032;-68
2022/12/24 09:34:30;;;;;;;10.40;6.60;;;;;;;-2.06;85.45;101046.97;5107324;28;20036;-68
2022/12/24 09:36:56;;;;;;;10.55;6.07;;;;;;;-2.26;85.67;101016.81;5099491;28;20102;-68
2022/12/24 09:39:21;;;;;;;10.43;6.40;;;;;;;-2.16;85.59;101034.47;5112618;28;20035;-71
2022/12/24 09:41:56;;;;;;;15.02;8.77;;;;;;;-1.91;86.13;101062.53;5102177;28;20494;-69
2022/12/24 09:44:33;;;;;;;12.80;8.02;;;;;;;-1.84;85.71;101065.56;5105800;28;20542;-67
2022/12/24 09:47:06;;;;;;;11.40;6.22;;;;;;;-1.83;85.72;101074.31;5110731;28;20061;-69
2022/12/24 09:49:39;;;;;;;9.32;6.15;;;;;;;-1.89;85.55;101057.13;5099005;28;20020;-69
2022/12/24 09:52:08;;;;;;;11.45;6.55;;;;;;;-1.69;85.48;101080.28;5106761;28;20028;-68
2022/12/24 09:54:39;;;;;;;23.25;11.40;;;;;;;-2.03;85.64;101012.50;5108413;28;20055;-69
2022/12/24 09:57:13;;;;;;;26.45;13.15;;;;;;;-1.55;85.94;101087.16;5098579;28;20028;-69
2022/12/24 09:59:44;;;;;;;27.15;15.45;;;;;;;-1.48;85.69;101077.00;5081998;28;20032;-69
2022/12/24 10:02:15;;;;;;;20.63;11.07;;;;;;;-1.51;85.97;101070.13;5070870;28;20422;-69
2022/12/24 10:04:42;;;;;;;16.95;9.65;;;;;;;-1.34;85.82;101081.22;5106767;28;20032;-69
2022/12/24 10:07:40;;;;;;;17.98;8.52;;;;;;;-1.46;86.05;101078.56;5097172;28;20089;-70
2022/12/24 10:10:35;;;;;;;17.50;8.80;;;;;;;-1.45;86.54;101077.59;5019800;28;20461;-71
2022/12/24 10:13:31;;;;;;;14.05;8.25;;;;;;;-1.50;86.50;101077.09;5093542;28;20210;-69
2022/12/24 10:16:02;;;;;;;14.70;7.78;;;;;;;-1.64;87.23;101087.84;5048504;28;20055;-70
2022/12/24 10:19:01;;;;;;;13.93;7.80;;;;;;;-1.51;87.05;101100.97;5102486;28;20063;-70
2022/12/24 10:21:48;;;;;;;16.33;8.48;;;;;;;-1.44;86.64;101100.38;5100824;28;20458;-71
2022/12/24 10:24:14;;;;;;;16.05;8.02;;;;;;;-1.26;86.56;101098.19;5107827;28;20035;-72
2022/12/24 10:26:48;;;;;;;15.30;7.72;;;;;;;-1.21;86.04;101092.56;5110853;28;20063;-70
2022/12/24 10:29:19;;;;;;;15.52;8.45;;;;;;;-1.39;86.83;101075.44;5100353;28;20111;-68
2022/12/24 10:32:01;;;;;;;16.30;7.70;;;;;;;-1.10;86.94;101097.00;5114170;28;20047;-69
2022/12/24 10:34:35;;;;;;;11.52;6.50;;;;;;;-0.95;86.17;101104.63;5110776;28;20030;-69
2022/12/24 10:37:03;;;;;;;11.27;5.60;;;;;;;-0.85;86.36;101096.00;5103112;28;20028;-69
2022/12/24 10:39:29;;;;;;;10.10;5.60;;;;;;;-0.78;85.91;101098.03;5114796;28;20024;-70
2022/12/24 10:41:57;;;;;;;9.82;5.97;;;;;;;-1.09;86.07;101036.16;5087981;28;20088;-69
2022/12/24 10:44:27;;;;;;;12.82;6.97;;;;;;;-0.66;86.42;101095.38;5108968;28;20024;-69
2022/12/24 10:46:53;;;;;;;10.73;6.40;;;;;;;-0.57;86.37;101102.59;5112113;28;20520;-69
2022/12/24 10:49:39;;;;;;;12.05;7.75;;;;;;;-0.56;86.56;101096.38;5102229;28;20031;-68
2022/12/24 10:52:11;;;;;;;15.98;9.13;;;;;;;-0.50;86.34;101086.16;5110625;28;20024;-70
2022/12/24 10:54:39;;;;;;;20.50;8.98;;;;;;;-0.67;86.16;101070.75;5111459;28;20027;-70
2022/12/24 10:57:22;;;;;;;15.18;9.00;;;;;;;-0.44;86.16;101105.97;5101517;28;20036;-70
2022/12/24 10:59:54;;;;;;;18.40;10.13;;;;;;;-0.50;85.94;101093.22;5089528;28;20023;-70
2022/12/24 11:02:38;;;;;;;79.90;31.30;;;;;;;-0.61;86.29;101102.00;5109028;28;20028;-70
2022/12/24 11:05:25;;;;;;;52.13;23.65;;;;;;;-0.53;86.64;101099.63;5110806;28;20114;-71
2022/12/24 11:08:12;;;;;;;66.43;31.73;;;;;;;-0.45;86.24;101108.75;5103883;28;20176;-69
2022/12/24 11:10:41;;;;;;;73.20;32.30;;;;;;;-0.40;86.43;101103.91;5106340;28;20032;-70
2022/12/24 11:13:23;;;;;;;52.45;22.27;;;;;;;-0.36;86.28;101111.50;5113818;28;20031;-70
2022/12/24 11:15:59;;;;;;;49.42;20.98;;;;;;;-0.39;86.26;101092.41;5090228;28;20023;-70
2022/12/24 11:18:24;;;;;;;36.25;18.75;;;;;;;-0.33;86.12;101118.34;5108073;28;20028;-70
2022/12/24 11:20:51;;;;;;;30.42;16.85;;;;;;;-0.24;86.40;101118.44;5112701;28;20379;-70
2022/12/24 11:23:17;;;;;;;21.15;11.93;;;;;;;-0.16;86.06;101109.94;5083561;28;20034;-70
2022/12/24 11:25:48;;;;;;;14.73;7.78;;;;;;;-0.40;87.31;101101.28;5112810;28;20024;-70
2022/12/24 11:28:30;;;;;;;13.85;8.15;;;;;;;-0.39;87.63;101117.03;5107993;28;20032;-71
2022/12/24 11:31:04;;;;;;;13.02;8.27;;;;;;;-0.18;87.57;101122.41;5102742;28;20429;-70
2022/12/24 11:33:30;;;;;;;15.35;7.18;;;;;;;-0.18;87.19;101092.50;5115205;28;20390;-70
2022/12/24 11:36:02;;;;;;;11.18;6.07;;;;;;;0.18;87.17;101123.09;5104484;28;20031;-70
2022/12/24 11:38:29;;;;;;;11.35;6.82;;;;;;;0.33;86.80;101127.16;5107299;28;20050;-70